Time;durP1;ratioP1;P1;durP2;ratioP2;P2;SDS_P1;SDS_P2;PMS_P1;PMS_P2;Temp;Humidity;BMP_temperature;BMP_pressure;BME280_temperature;BME280_humidity;BME280_pressure;Samples;Min_cycle;Max_cycle;Signal;HPM_P1;HPM_P2
2022/07/06 00:01:32;;;;;;;1.70;1.30;;;14.50;99.90;;;;;;5070904;28;20503;-72
2022/07/06 00:03:57;;;;;;;3.93;1.00;;;14.50;99.90;;;;;;5072172;28;20249;-72
2022/07/06 00:06:23;;;;;;;1.20;1.07;;;14.40;99.90;;;;;;5070602;28;20396;-72
2022/07/06 00:08:49;;;;;;;2.70;1.30;;;14.30;99.90;;;;;;5072005;28;20273;-72
2022/07/06 00:11:15;;;;;;;6.30;3.13;;;14.30;99.90;;;;;;5070617;28;20481;-72
2022/07/06 00:13:41;;;;;;;1.80;1.50;;;14.20;99.90;;;;;;5072135;28;20404;-72
2022/07/06 00:16:06;;;;;;;1.93;1.40;;;14.20;99.90;;;;;;5071370;28;20166;-73
2022/07/06 00:18:32;;;;;;;3.60;1.40;;;14.20;99.90;;;;;;5071517;28;20186;-73
2022/07/06 00:20:57;;;;;;;1.30;1.20;;;14.20;99.90;;;;;;5071536;28;20171;-72
2022/07/06 00:23:23;;;;;;;1.73;1.37;;;14.10;99.90;;;;;;5071577;28;20174;-71
2022/07/06 00:25:49;;;;;;;1.97;1.40;;;14.10;99.90;;;;;;5071166;28;20163;-70
2022/07/06 00:28:14;;;;;;;1.60;1.43;;;14.00;99.90;;;;;;5071344;28;20194;-72
2022/07/06 00:30:40;;;;;;;1.97;1.47;;;14.00;99.90;;;;;;5071812;28;20174;-72
2022/07/06 00:33:06;;;;;;;1.40;1.20;;;13.90;99.90;;;;;;5071588;28;20163;-71
2022/07/06 00:35:32;;;;;;;1.57;1.30;;;13.80;99.90;;;;;;5069758;28;20177;-72
2022/07/06 00:37:58;;;;;;;2.33;1.90;;;13.80;99.90;;;;;;5071893;28;20827;-72
2022/07/06 00:40:23;;;;;;;8.70;1.67;;;13.70;99.90;;;;;;5075206;28;20174;-72
2022/07/06 00:42:49;;;;;;;2.43;2.13;;;13.70;99.90;;;;;;5075752;28;20245;-72
2022/07/06 00:45:17;;;;;;;2.20;1.27;;;13.70;99.90;;;;;;5073382;28;20174;-73
2022/07/06 00:47:43;;;;;;;1.50;1.10;;;13.60;99.90;;;;;;5074878;28;20708;-73
2022/07/06 00:50:14;;;;;;;2.47;1.97;;;13.50;99.90;;;;;;5073775;28;20404;-73
2022/07/06 00:52:45;;;;;;;1.77;1.60;;;13.50;99.90;;;;;;5075091;28;20419;-73
2022/07/06 00:55:12;;;;;;;1.60;1.30;;;13.50;99.90;;;;;;5073145;28;20392;-73
2022/07/06 00:57:39;;;;;;;3.67;1.17;;;13.40;99.90;;;;;;5074867;28;20501;-73
2022/07/06 01:00:07;;;;;;;1.97;1.60;;;13.30;99.90;;;;;;5074725;28;20408;-72
2022/07/06 01:02:33;;;;;;;2.10;1.67;;;13.30;99.90;;;;;;5073417;28;20493;-72
2022/07/06 01:04:59;;;;;;;3.00;1.40;;;13.20;99.90;;;;;;5074292;28;20413;-71
2022/07/06 01:07:25;;;;;;;1.90;1.70;;;13.20;99.90;;;;;;5073264;28;20543;-71
2022/07/06 01:09:51;;;;;;;1.90;1.60;;;13.10;99.90;;;;;;5073707;28;20482;-72
2022/07/06 01:12:17;;;;;;;3.40;1.50;;;13.10;99.90;;;;;;5074216;28;20436;-72
2022/07/06 01:14:43;;;;;;;2.40;1.63;;;13.10;99.90;;;;;;5072963;28;20561;-72
2022/07/06 01:17:09;;;;;;;1.83;1.63;;;13.00;99.90;;;;;;5073221;28;20445;-73
2022/07/06 01:19:34;;;;;;;1.80;1.40;;;13.00;99.90;;;;;;5074250;28;20443;-72
2022/07/06 01:22:00;;;;;;;1.60;1.50;;;13.00;99.90;;;;;;5074364;28;20401;-71
2022/07/06 01:24:26;;;;;;;1.87;1.20;;;13.00;99.90;;;;;;5074394;28;20708;-72
2022/07/06 01:26:51;;;;;;;1.60;1.30;;;13.00;99.90;;;;;;5074454;28;20239;-72
2022/07/06 01:29:17;;;;;;;2.60;1.30;;;12.90;99.90;;;;;;5074192;28;20423;-73
2022/07/06 01:31:48;;;;;;;1.63;1.53;;;12.90;99.90;;;;;;5074521;28;20227;-72
2022/07/06 01:34:15;;;;;;;1.70;1.20;;;12.90;99.90;;;;;;5072727;28;20501;-73
2022/07/06 01:36:41;;;;;;;2.00;1.60;;;12.90;99.90;;;;;;5073942;28;20412;-73
2022/07/06 01:39:08;;;;;;;1.73;1.30;;;12.90;99.90;;;;;;5074249;28;20431;-73
2022/07/06 01:41:34;;;;;;;2.10;1.30;;;12.90;99.90;;;;;;5072580;28;20173;-73
2022/07/06 01:44:00;;;;;;;3.20;1.50;;;12.90;99.90;;;;;;5073007;28;20417;-73
2022/07/06 01:46:26;;;;;;;2.20;1.90;;;12.90;99.90;;;;;;5072369;28;20416;-73
2022/07/06 01:48:52;;;;;;;1.83;1.67;;;12.80;99.90;;;;;;5074392;28;20504;-73
2022/07/06 01:51:17;;;;;;;2.67;1.90;;;12.80;99.90;;;;;;5071754;28;20177;-73
2022/07/06 01:53:43;;;;;;;2.10;1.87;;;12.80;99.90;;;;;;5073651;28;20716;-72
2022/07/06 01:56:10;;;;;;;3.40;2.13;;;12.70;99.90;;;;;;5072526;28;20253;-73
2022/07/06 01:58:35;;;;;;;2.37;2.10;;;12.70;99.90;;;;;;5073570;28;20416;-73
2022/07/06 02:01:09;;;;;;;1.77;1.47;;;12.70;99.90;;;;;;5073484;28;20416;-74
2022/07/06 02:03:35;;;;;;;2.77;2.27;;;12.60;99.90;;;;;;5072366;28;20166;-73
2022/07/06 02:06:00;;;;;;;2.00;1.40;;;12.60;99.90;;;;;;5071944;28;20411;-73
2022/07/06 02:08:26;;;;;;;4.13;1.60;;;12.60;99.90;;;;;;5072187;28;20543;-74
2022/07/06 02:10:51;;;;;;;4.23;1.60;;;12.60;99.90;;;;;;5072242;28;20163;-74
2022/07/06 02:13:17;;;;;;;1.30;1.17;;;12.60;99.90;;;;;;5073142;28;20205;-73
2022/07/06 02:15:42;;;;;;;2.60;1.67;;;12.60;99.90;;;;;;5072859;28;20165;-73
2022/07/06 02:18:08;;;;;;;2.63;1.80;;;12.50;99.90;;;;;;5072076;28;20197;-74
2022/07/06 02:20:34;;;;;;;4.80;1.80;;;12.50;99.90;;;;;;5073450;28;20162;-73
2022/07/06 02:22:59;;;;;;;2.40;1.77;;;12.50;99.90;;;;;;5073003;28;20163;-73
2022/07/06 02:25:25;;;;;;;3.90;3.00;;;12.50;99.90;;;;;;5072670;28;20166;-72
2022/07/06 02:27:50;;;;;;;2.67;1.60;;;12.40;99.90;;;;;;5072458;28;20186;-72
2022/07/06 02:30:16;;;;;;;2.00;1.60;;;12.40;99.90;;;;;;5071724;28;20678;-74
2022/07/06 02:32:42;;;;;;;2.97;1.87;;;12.40;99.90;;;;;;5073047;28;20170;-72
2022/07/06 02:35:08;;;;;;;2.60;1.43;;;12.40;99.90;;;;;;5072691;28;20245;-73
2022/07/06 02:37:33;;;;;;;2.57;1.60;;;12.30;99.90;;;;;;5072842;28;20562;-72
2022/07/06 02:39:59;;;;;;;8.30;2.40;;;12.30;99.90;;;;;;5071538;28;20194;-74
2022/07/06 02:42:25;;;;;;;2.00;1.80;;;12.30;99.90;;;;;;5072790;28;20191;-74
2022/07/06 02:44:53;;;;;;;8.10;2.40;;;12.20;99.90;;;;;;5072447;28;20257;-74
2022/07/06 02:47:18;;;;;;;3.20;2.43;;;12.20;99.90;;;;;;5072654;28;20217;-73
2022/07/06 02:49:44;;;;;;;1.67;1.57;;;12.20;99.90;;;;;;5072474;28;20929;-73
2022/07/06 02:52:09;;;;;;;3.57;1.70;;;12.20;99.90;;;;;;5072576;28;20255;-73
2022/07/06 02:54:35;;;;;;;1.60;1.50;;;12.20;99.90;;;;;;5071165;28;20240;-73
2022/07/06 02:57:01;;;;;;;3.37;2.10;;;12.10;99.90;;;;;;5072755;28;20166;-74
2022/07/06 02:59:26;;;;;;;2.70;2.20;;;12.10;99.90;;;;;;5072351;28;20194;-74
2022/07/06 03:01:52;;;;;;;5.30;2.80;;;12.10;99.90;;;;;;5071072;28;20178;-72
2022/07/06 03:04:17;;;;;;;2.30;2.10;;;12.10;99.90;;;;;;5072202;28;20253;-73
2022/07/06 03:06:43;;;;;;;1.67;1.57;;;12.10;99.90;;;;;;5071423;28;20285;-73
2022/07/06 03:09:08;;;;;;;2.90;2.23;;;12.00;99.90;;;;;;5071133;28;20190;-73
2022/07/06 03:11:37;;;;;;;3.53;2.70;;;12.00;99.90;;;;;;5072565;28;20166;-73
2022/07/06 03:14:06;;;;;;;1.87;1.57;;;12.00;99.90;;;;;;5071339;28;20166;-72
2022/07/06 03:16:31;;;;;;;3.60;2.47;;;12.00;99.90;;;;;;5070938;28;20428;-73
2022/07/06 03:18:57;;;;;;;3.17;2.40;;;11.90;99.90;;;;;;5071763;28;20420;-73
2022/07/06 03:21:24;;;;;;;3.20;1.83;;;12.00;99.90;;;;;;5071679;28;20263;-73
2022/07/06 03:23:49;;;;;;;5.20;2.13;;;11.90;99.90;;;;;;5072321;28;20404;-73
2022/07/06 03:26:15;;;;;;;5.13;2.00;;;11.90;99.90;;;;;;5070527;28;20417;-73
2022/07/06 03:28:40;;;;;;;13.83;2.37;;;11.90;99.90;;;;;;5071874;28;20205;-73
2022/07/06 03:31:06;;;;;;;3.20;1.50;;;11.90;99.90;;;;;;5072102;28;20527;-74
2022/07/06 03:33:32;;;;;;;2.50;1.50;;;11.80;99.90;;;;;;5071994;28;20578;-72
2022/07/06 03:35:57;;;;;;;1.97;1.57;;;11.90;99.90;;;;;;5070746;28;20577;-73
2022/07/06 03:38:23;;;;;;;3.40;1.90;;;11.90;99.90;;;;;;5072423;28;20208;-74
2022/07/06 03:40:48;;;;;;;4.90;2.10;;;11.80;99.90;;;;;;5071931;28;20239;-74
2022/07/06 03:43:14;;;;;;;2.33;1.67;;;11.90;99.90;;;;;;5071200;28;20224;-74
2022/07/06 03:45:40;;;;;;;4.73;1.90;;;11.90;99.90;;;;;;5071303;28;20201;-73
2022/07/06 03:48:06;;;;;;;3.20;2.30;;;11.90;99.90;;;;;;5071776;28;20209;-73
2022/07/06 03:50:31;;;;;;;3.33;2.20;;;11.90;99.90;;;;;;5071943;28;20173;-73
2022/07/06 03:52:57;;;;;;;2.43;2.10;;;11.90;99.90;;;;;;5071837;28;20421;-73
2022/07/06 03:55:23;;;;;;;3.30;1.73;;;12.00;99.90;;;;;;5071351;28;20174;-73
2022/07/06 03:57:48;;;;;;;4.00;1.73;;;12.00;99.90;;;;;;5071754;28;20170;-73
2022/07/06 04:00:14;;;;;;;2.87;2.40;;;12.00;99.90;;;;;;5071741;28;20176;-73
2022/07/06 04:02:40;;;;;;;4.60;2.57;;;12.10;99.90;;;;;;5071746;28;20185;-72
2022/07/06 04:05:06;;;;;;;5.70;2.53;;;12.10;99.90;;;;;;5071538;28;20166;-72
2022/07/06 04:07:31;;;;;;;3.13;2.20;;;12.10;99.90;;;;;;5071559;28;20542;-72
2022/07/06 04:09:57;;;;;;;3.03;2.40;;;12.20;99.90;;;;;;5070536;28;20961;-73
2022/07/06 04:12:23;;;;;;;2.70;2.20;;;12.20;99.90;;;;;;5071777;28;20210;-72
2022/07/06 04:14:48;;;;;;;9.03;2.57;;;12.30;99.90;;;;;;5074659;28;20162;-74
2022/07/06 04:19:58;;;;;;;2.60;1.83;;;12.40;99.90;;;;;;5075506;28;20197;-73
2022/07/06 04:22:23;;;;;;;14.13;2.90;;;12.40;99.90;;;;;;5075613;28;20897;-73
2022/07/06 04:24:49;;;;;;;3.53;2.87;;;12.40;99.90;;;;;;5073648;28;20180;-72
2022/07/06 04:27:14;;;;;;;2.43;1.77;;;12.50;99.90;;;;;;5074334;28;20292;-73
2022/07/06 04:29:40;;;;;;;3.73;2.07;;;12.50;99.90;;;;;;5075591;28;20274;-74
2022/07/06 04:32:06;;;;;;;2.00;1.90;;;12.60;99.90;;;;;;5075470;28;20170;-73
2022/07/06 04:34:32;;;;;;;3.33;2.23;;;12.60;99.90;;;;;;5073698;28;20173;-72
2022/07/06 04:36:58;;;;;;;2.23;2.00;;;12.70;99.90;;;;;;5075656;28;20405;-74
2022/07/06 04:39:23;;;;;;;3.80;2.20;;;12.80;99.90;;;;;;5075221;28;20273;-73
2022/07/06 04:41:49;;;;;;;3.10;1.77;;;12.80;99.90;;;;;;5075040;28;20462;-72
2022/07/06 04:44:14;;;;;;;2.73;1.63;;;12.90;99.90;;;;;;5075110;28;20178;-73
2022/07/06 04:46:40;;;;;;;2.47;1.70;;;12.90;99.90;;;;;;5073779;28;20269;-72
2022/07/06 04:49:06;;;;;;;1.80;1.33;;;13.00;99.90;;;;;;5075466;28;20197;-73
2022/07/06 04:51:32;;;;;;;3.07;1.80;;;13.10;99.90;;;;;;5075325;28;20216;-74
2022/07/06 04:53:58;;;;;;;1.47;1.30;;;13.20;99.90;;;;;;5075077;28;20428;-74
2022/07/06 04:56:23;;;;;;;3.07;1.87;;;13.20;99.90;;;;;;5075004;28;20551;-72
2022/07/06 04:58:49;;;;;;;3.30;2.23;;;13.30;99.90;;;;;;5073634;28;20204;-72
2022/07/06 05:01:14;;;;;;;5.40;4.07;;;13.40;99.90;;;;;;5074921;28;20253;-73
2022/07/06 05:03:40;;;;;;;4.03;2.83;;;13.60;99.90;;;;;;5075073;28;20170;-73
2022/07/06 05:06:06;;;;;;;2.27;1.87;;;13.60;99.90;;;;;;5074633;28;20202;-72
2022/07/06 05:08:32;;;;;;;2.73;1.80;;;13.70;99.90;;;;;;5074223;28;20216;-73
2022/07/06 05:10:58;;;;;;;2.10;1.90;;;13.80;99.90;;;;;;5073269;28;20503;-74
2022/07/06 05:13:23;;;;;;;2.40;2.10;;;13.90;99.90;;;;;;5074847;28;20770;-74
2022/07/06 05:15:49;;;;;;;3.20;1.70;;;14.00;99.90;;;;;;5074615;28;20594;-74
2022/07/06 05:18:15;;;;;;;3.47;1.70;;;14.00;99.90;;;;;;5074790;28;20194;-73
2022/07/06 05:20:40;;;;;;;1.90;1.33;;;14.10;99.90;;;;;;5074485;28;20174;-73
2022/07/06 05:23:06;;;;;;;3.03;1.60;;;14.20;99.90;;;;;;5074709;28;20514;-73
2022/07/06 05:25:32;;;;;;;3.30;1.73;;;14.30;99.90;;;;;;5073351;28;20178;-74
2022/07/06 05:27:58;;;;;;;4.67;1.87;;;14.40;99.90;;;;;;5074758;28;20565;-73
2022/07/06 05:30:24;;;;;;;5.60;2.57;;;14.50;99.90;;;;;;5073946;28;20408;-74
2022/07/06 05:32:50;;;;;;;3.10;1.30;;;14.70;99.90;;;;;;5074349;28;20401;-72
2022/07/06 05:35:16;;;;;;;3.83;1.80;;;14.80;99.90;;;;;;5073807;28;20879;-73
2022/07/06 05:37:42;;;;;;;3.10;2.03;;;14.90;99.90;;;;;;5073566;28;20235;-73
2022/07/06 05:40:08;;;;;;;4.00;2.27;;;15.10;99.90;;;;;;5074847;28;20400;-73
2022/07/06 05:42:33;;;;;;;2.83;2.53;;;15.30;99.90;;;;;;5074474;28;20174;-72
2022/07/06 05:44:59;;;;;;;2.40;1.77;;;15.40;99.90;;;;;;5073605;28;20495;-72
2022/07/06 05:50:12;;;;;;;4.80;1.50;;;15.70;99.90;;;;;;5073949;28;20685;-73
2022/07/06 05:52:38;;;;;;;1.80;1.50;;;15.80;99.90;;;;;;5073575;28;21125;-72
2022/07/06 05:55:04;;;;;;;4.07;1.70;;;16.00;99.90;;;;;;5073299;28;20400;-72
2022/07/06 05:57:30;;;;;;;2.50;2.17;;;16.10;99.90;;;;;;5072510;28;20408;-73
2022/07/06 05:59:56;;;;;;;2.50;2.30;;;16.30;99.90;;;;;;5073540;28;20434;-73
2022/07/06 06:02:21;;;;;;;2.13;1.90;;;16.50;99.90;;;;;;5073629;28;20166;-73
2022/07/06 06:04:47;;;;;;;2.47;1.90;;;16.80;99.90;;;;;;5073388;28;20635;-74
2022/07/06 06:07:12;;;;;;;5.43;2.63;;;17.00;99.90;;;;;;5074010;28;20724;-73
2022/07/06 06:09:38;;;;;;;3.40;2.00;;;17.30;99.90;;;;;;5073296;28;20186;-74
2022/07/06 06:12:03;;;;;;;1.57;1.47;;;17.60;99.90;;;;;;5073585;28;20167;-73
2022/07/06 06:14:29;;;;;;;1.47;1.30;;;17.80;99.90;;;;;;5073428;28;20208;-73
2022/07/06 06:16:54;;;;;;;2.70;1.70;;;18.00;99.90;;;;;;5073210;28;20504;-74
2022/07/06 06:19:20;;;;;;;4.00;2.03;;;18.30;99.90;;;;;;5071760;28;20189;-74
2022/07/06 06:21:46;;;;;;;2.83;1.50;;;18.70;99.90;;;;;;5073600;28;20198;-73
2022/07/06 06:24:11;;;;;;;1.93;1.70;;;19.30;99.90;;;;;;5072222;28;20167;-72
2022/07/06 06:26:37;;;;;;;2.57;1.60;;;20.00;99.90;;;;;;5071799;28;20223;-72
2022/07/06 06:29:02;;;;;;;5.00;1.23;;;20.80;99.90;;;;;;5071659;28;20277;-71
2022/07/06 06:31:28;;;;;;;1.63;1.53;;;21.60;99.90;;;;;;5072918;28;20158;-72
2022/07/06 06:33:54;;;;;;;2.27;1.67;;;22.20;99.90;;;;;;5072816;28;20154;-71
2022/07/06 06:36:19;;;;;;;1.17;1.07;;;22.60;99.90;;;;;;5070791;28;20170;-71
2022/07/06 06:38:45;;;;;;;2.43;1.60;;;22.90;99.70;;;;;;5072705;28;20190;-72
2022/07/06 06:41:10;;;;;;;2.77;1.50;;;23.60;98.60;;;;;;5072756;28;20690;-71
2022/07/06 06:43:36;;;;;;;2.90;1.77;;;24.10;93.30;;;;;;5072638;28;20170;-71
2022/07/06 06:46:01;;;;;;;3.23;1.53;;;24.10;89.80;;;;;;5071018;28;20170;-71
2022/07/06 06:48:27;;;;;;;1.80;1.50;;;23.90;89.30;;;;;;5072499;28;20228;-72
2022/07/06 06:50:53;;;;;;;1.80;1.50;;;23.70;90.30;;;;;;5072375;28;20166;-72
2022/07/06 06:53:18;;;;;;;4.10;1.50;;;23.40;88.40;;;;;;5072485;28;20217;-71
2022/07/06 06:55:44;;;;;;;1.60;1.40;;;23.20;91.20;;;;;;5072151;28;20170;-71
2022/07/06 06:58:09;;;;;;;2.60;1.70;;;22.80;93.40;;;;;;5072416;28;20740;-71
2022/07/06 07:00:35;;;;;;;3.07;1.53;;;22.60;92.50;;;;;;5072434;28;20576;-72
2022/07/06 07:03:01;;;;;;;2.73;2.40;;;22.00;94.70;;;;;;5072356;28;20173;-72
2022/07/06 07:05:26;;;;;;;1.77;1.30;;;21.40;99.90;;;;;;5072065;28;20178;-72
2022/07/06 07:07:52;;;;;;;3.83;1.20;;;21.10;99.90;;;;;;5072135;28;20194;-71
2022/07/06 07:10:17;;;;;;;1.90;1.50;;;21.10;99.90;;;;;;5072221;28;20162;-71
2022/07/06 07:12:44;;;;;;;4.80;2.47;;;21.00;99.90;;;;;;5072323;28;20155;-71
2022/07/06 07:15:11;;;;;;;1.30;1.10;;;20.80;99.90;;;;;;5072007;28;20536;-71
2022/07/06 07:17:36;;;;;;;2.10;1.70;;;20.70;99.90;;;;;;5070862;28;20424;-71
2022/07/06 07:20:02;;;;;;;1.50;1.40;;;20.80;99.90;;;;;;5072315;28;20412;-71
2022/07/06 07:22:27;;;;;;;5.53;1.37;;;20.70;99.90;;;;;;5072190;28;20174;-71
2022/07/06 07:24:53;;;;;;;2.87;1.67;;;20.90;99.90;;;;;;5071830;28;20185;-71
2022/07/06 07:27:18;;;;;;;1.70;1.40;;;21.50;99.90;;;;;;5072024;28;20240;-72
2022/07/06 07:29:44;;;;;;;1.77;1.40;;;21.70;99.90;;;;;;5072006;28;20265;-72
2022/07/06 07:32:09;;;;;;;1.40;1.20;;;21.90;99.90;;;;;;5072022;28;20181;-72
2022/07/06 07:34:35;;;;;;;13.50;1.20;;;22.40;99.90;;;;;;5070646;28;20308;-72
2022/07/06 07:37:01;;;;;;;1.37;1.20;;;22.70;99.70;;;;;;5071999;28;20174;-71
2022/07/06 07:39:26;;;;;;;1.30;1.10;;;22.60;99.60;;;;;;5071914;28;20198;-72
2022/07/06 07:41:52;;;;;;;1.20;0.77;;;22.30;99.90;;;;;;5070617;28;20296;-72
2022/07/06 07:44:17;;;;;;;1.27;1.17;;;22.10;99.30;;;;;;5071634;28;20202;-70
2022/07/06 07:46:43;;;;;;;3.93;2.30;;;21.70;99.90;;;;;;5071730;28;20196;-71
2022/07/06 07:49:09;;;;;;;1.20;0.80;;;21.50;99.90;;;;;;5073917;28;20243;-71
2022/07/06 07:51:34;;;;;;;1.10;0.90;;;21.20;99.90;;;;;;5074813;28;20166;-71
2022/07/06 07:54:00;;;;;;;1.40;1.10;;;21.00;99.90;;;;;;5075880;28;20416;-71
2022/07/06 07:56:25;;;;;;;1.17;0.77;;;20.60;99.90;;;;;;5075656;28;20166;-71
2022/07/06 07:58:51;;;;;;;1.73;1.20;;;20.30;99.90;;;;;;5075769;28;20239;-72
2022/07/06 08:01:16;;;;;;;1.20;0.80;;;20.10;99.90;;;;;;5075799;28;20253;-71
2022/07/06 08:03:42;;;;;;;1.67;1.57;;;20.10;99.90;;;;;;5075726;28;20194;-71
2022/07/06 08:06:08;;;;;;;1.20;0.97;;;19.90;99.90;;;;;;5075470;28;20174;-71
2022/07/06 08:08:33;;;;;;;1.17;1.07;;;19.90;99.90;;;;;;5075598;28;20208;-71
2022/07/06 08:10:59;;;;;;;1.37;0.90;;;19.80;99.90;;;;;;5076057;28;20164;-71
2022/07/06 08:13:24;;;;;;;1.10;0.73;;;19.80;99.90;;;;;;5074295;28;20194;-72
2022/07/06 08:15:50;;;;;;;1.30;0.90;;;19.70;99.90;;;;;;5075206;28;20169;-71
2022/07/06 08:18:15;;;;;;;1.00;0.80;;;19.50;99.90;;;;;;5074979;28;20182;-71
2022/07/06 08:20:41;;;;;;;7.13;0.80;;;19.10;99.90;;;;;;5075172;28;20209;-71
2022/07/06 08:23:06;;;;;;;1.00;0.70;;;19.00;99.90;;;;;;5075605;28;20158;-71
2022/07/06 08:25:32;;;;;;;1.47;1.00;;;19.00;99.90;;;;;;5075172;28;20174;-71
2022/07/06 08:27:58;;;;;;;1.37;0.90;;;18.80;99.90;;;;;;5073820;28;20206;-71
2022/07/06 08:30:23;;;;;;;3.13;0.70;;;18.80;99.90;;;;;;5075262;28;20155;-71
2022/07/06 08:32:49;;;;;;;0.93;0.63;;;18.60;99.90;;;;;;5075092;28;20574;-71
2022/07/06 08:35:15;;;;;;;1.33;0.60;;;18.50;99.90;;;;;;5074895;28;20169;-71
2022/07/06 08:37:40;;;;;;;0.90;0.60;;;18.50;99.90;;;;;;5075015;28;20507;-71
2022/07/06 08:40:06;;;;;;;1.00;0.70;;;18.40;99.90;;;;;;5073736;28;20643;-71
2022/07/06 08:42:34;;;;;;;1.10;0.80;;;18.40;99.90;;;;;;5075021;28;20727;-71
2022/07/06 08:45:03;;;;;;;0.90;0.63;;;18.40;99.90;;;;;;5074646;28;20769;-71
2022/07/06 08:47:30;;;;;;;1.27;0.83;;;18.50;99.90;;;;;;5074793;28;20605;-71
2022/07/06 08:49:56;;;;;;;1.00;0.70;;;18.50;99.90;;;;;;5074832;28;20927;-71
2022/07/06 08:52:23;;;;;;;1.80;0.77;;;18.50;99.90;;;;;;5074824;28;20796;-71
2022/07/06 08:54:49;;;;;;;3.20;0.93;;;18.70;99.90;;;;;;5073460;28;20415;-73
2022/07/06 08:57:15;;;;;;;1.30;0.97;;;18.70;99.90;;;;;;5073503;28;20409;-71
2022/07/06 08:59:40;;;;;;;1.10;0.73;;;18.80;99.90;;;;;;5074120;28;20426;-71
2022/07/06 09:02:06;;;;;;;1.57;0.87;;;18.90;99.90;;;;;;5074745;28;20649;-71
2022/07/06 09:04:35;;;;;;;3.43;1.17;;;18.90;99.90;;;;;;5074556;28;20185;-71
2022/07/06 09:07:01;;;;;;;1.20;0.73;;;18.70;99.90;;;;;;5074444;28;20280;-71
2022/07/06 09:09:30;;;;;;;3.20;0.80;;;18.60;99.90;;;;;;5073227;28;20879;-71
2022/07/06 09:11:56;;;;;;;1.20;0.77;;;18.60;99.90;;;;;;5074632;28;20186;-71
2022/07/06 09:14:22;;;;;;;4.43;0.90;;;18.40;99.90;;;;;;5074196;28;20413;-71
2022/07/06 09:17:00;;;;;;;1.20;0.70;;;18.40;99.90;;;;;;5074439;28;20400;-71
2022/07/06 09:19:25;;;;;;;0.97;0.77;;;18.40;99.90;;;;;;5074396;28;20608;-71
2022/07/06 09:21:51;;;;;;;0.97;0.70;;;18.40;99.90;;;;;;5074350;28;20486;-71
2022/07/06 09:24:17;;;;;;;1.00;0.70;;;18.40;99.90;;;;;;5074069;28;20171;-71
2022/07/06 09:26:43;;;;;;;1.90;0.97;;;18.40;99.90;;;;;;5072849;28;20180;-71
2022/07/06 09:29:10;;;;;;;1.20;0.63;;;18.50;99.90;;;;;;5072779;28;20429;-71
2022/07/06 09:31:35;;;;;;;1.17;0.77;;;18.50;99.90;;;;;;5074096;28;20178;-71
2022/07/06 09:34:08;;;;;;;0.90;0.67;;;18.60;99.90;;;;;;5072793;28;20785;-71
2022/07/06 09:36:42;;;;;;;1.77;0.70;;;18.60;99.90;;;;;;5072679;28;20536;-71
2022/07/06 09:39:21;;;;;;;1.70;1.33;;;18.70;99.90;;;;;;5073909;28;20447;-71
2022/07/06 09:41:49;;;;;;;2.03;1.30;;;18.80;99.90;;;;;;5074294;28;20896;-71
2022/07/06 09:44:26;;;;;;;1.73;0.90;;;19.00;99.90;;;;;;5073694;28;20404;-71
2022/07/06 09:46:54;;;;;;;1.50;1.00;;;19.30;99.90;;;;;;5072458;28;20440;-71
2022/07/06 09:49:21;;;;;;;1.10;0.80;;;19.80;99.90;;;;;;5073759;28;20434;-71
2022/07/06 09:51:51;;;;;;;3.23;0.70;;;20.30;99.90;;;;;;5073727;28;20954;-71
2022/07/06 09:54:17;;;;;;;1.10;0.90;;;20.90;99.90;;;;;;5073404;28;20895;-71
2022/07/06 09:56:47;;;;;;;1.47;0.93;;;21.80;99.90;;;;;;5073843;28;20444;-72
2022/07/06 09:59:15;;;;;;;1.00;0.70;;;23.60;99.90;;;;;;5073549;28;20930;-72
2022/07/06 10:01:41;;;;;;;6.13;1.80;;;26.20;95.80;;;;;;5073566;28;20759;-72
2022/07/06 10:04:09;;;;;;;1.10;0.80;;;29.00;80.10;;;;;;5073429;28;20491;-72
2022/07/06 10:06:36;;;;;;;1.47;1.00;;;31.60;57.10;;;;;;5073353;28;20408;-73
2022/07/06 10:09:04;;;;;;;1.77;1.20;;;33.40;47.30;;;;;;5073294;28;20459;-73
2022/07/06 10:11:32;;;;;;;3.30;1.27;;;34.60;43.10;;;;;;5072417;28;20466;-73
2022/07/06 10:14:01;;;;;;;2.47;1.00;;;36.20;39.50;;;;;;5073455;28;20537;-73
2022/07/06 10:16:27;;;;;;;1.30;1.20;;;36.20;37.10;;;;;;5073048;28;20486;-73
2022/07/06 10:18:54;;;;;;;2.27;1.10;;;36.30;35.80;;;;;;5073038;28;20810;-74
2022/07/06 10:21:24;;;;;;;1.67;1.47;;;36.20;34.10;;;;;;5071868;28;20451;-73
2022/07/06 10:23:50;;;;;;;1.30;1.10;;;35.40;35.70;;;;;;5073302;28;20401;-73
2022/07/06 10:26:18;;;;;;;1.10;1.00;;;34.50;36.10;;;;;;5071528;28;20759;-73
2022/07/06 10:28:46;;;;;;;1.30;0.80;;;34.60;36.70;;;;;;5072903;28;20475;-73
2022/07/06 10:31:13;;;;;;;1.40;0.90;;;33.90;37.20;;;;;;5072923;28;20813;-74
2022/07/06 10:33:40;;;;;;;1.10;1.00;;;33.70;39.00;;;;;;5072934;28;20404;-73
2022/07/06 10:36:07;;;;;;;1.20;1.10;;;34.40;37.30;;;;;;5072575;28;20405;-73
2022/07/06 10:38:34;;;;;;;1.20;1.10;;;35.50;35.70;;;;;;5072742;28;20468;-73
2022/07/06 10:41:06;;;;;;;1.70;1.33;;;35.90;34.90;;;;;;5072716;28;20404;-73
2022/07/06 10:43:42;;;;;;;1.90;1.30;;;37.10;33.70;;;;;;5071590;28;20578;-73
2022/07/06 10:46:15;;;;;;;1.40;1.23;;;37.10;33.20;;;;;;5072257;28;20406;-74
2022/07/06 10:48:42;;;;;;;1.30;1.20;;;37.40;32.10;;;;;;5072498;28;20452;-73
2022/07/06 10:51:10;;;;;;;1.27;1.00;;;37.20;32.30;;;;;;5072568;28;20404;-74
2022/07/06 10:53:39;;;;;;;2.17;1.10;;;37.10;31.70;;;;;;5072368;28;20427;-74
2022/07/06 10:56:07;;;;;;;1.30;1.10;;;35.80;30.70;;;;;;5072321;28;20401;-73
2022/07/06 10:58:48;;;;;;;1.23;1.00;;;35.30;33.20;;;;;;5072255;28;20473;-74
2022/07/06 11:01:14;;;;;;;2.23;1.20;;;35.80;32.80;;;;;;5072444;28;20395;-73
2022/07/06 11:03:42;;;;;;;2.80;1.40;;;35.80;34.20;;;;;;5072792;28;20520;-73
2022/07/06 11:06:16;;;;;;;2.80;1.80;;;36.00;32.40;;;;;;5072106;28;20407;-73
2022/07/06 11:08:52;;;;;;;3.17;2.10;;;36.20;33.00;;;;;;5072265;28;20459;-73
2022/07/06 11:11:30;;;;;;;3.10;2.90;;;36.40;32.70;;;;;;5072344;28;20468;-73
2022/07/06 11:14:01;;;;;;;1.83;1.13;;;36.40;31.40;;;;;;5072325;28;20404;-73
2022/07/06 11:16:33;;;;;;;1.30;1.20;;;35.80;32.20;;;;;;5071980;28;20404;-74
2022/07/06 11:19:01;;;;;;;1.40;1.27;;;36.80;33.30;;;;;;5072231;28;20420;-73
2022/07/06 11:21:35;;;;;;;2.03;1.30;;;36.90;32.40;;;;;;5072130;28;20411;-74
2022/07/06 11:24:03;;;;;;;1.40;1.10;;;37.30;30.50;;;;;;5070720;28;20918;-73
2022/07/06 11:26:30;;;;;;;3.10;1.23;;;37.50;30.10;;;;;;5071950;28;20499;-74
2022/07/06 11:28:58;;;;;;;6.30;1.53;;;37.60;29.50;;;;;;5071939;28;20479;-73
2022/07/06 11:31:23;;;;;;;3.30;1.43;;;36.90;29.50;;;;;;5072101;28;20479;-74
2022/07/06 11:33:49;;;;;;;1.07;0.93;;;35.80;30.60;;;;;;5072010;28;20882;-73
2022/07/06 11:36:17;;;;;;;3.23;1.77;;;35.00;30.80;;;;;;5071707;28;20162;-73
2022/07/06 11:38:43;;;;;;;1.37;1.07;;;34.20;32.60;;;;;;5071987;28;20686;-73
2022/07/06 11:41:11;;;;;;;1.30;1.00;;;33.30;32.40;;;;;;5071915;28;20401;-73
2022/07/06 11:43:37;;;;;;;1.93;1.10;;;32.60;34.80;;;;;;5071971;28;20404;-73
2022/07/06 11:46:03;;;;;;;1.50;1.33;;;32.70;36.20;;;;;;5071654;28;20985;-73
2022/07/06 11:48:28;;;;;;;1.10;1.00;;;33.00;36.00;;;;;;5071733;28;20531;-73
2022/07/06 11:50:59;;;;;;;1.10;0.90;;;33.10;34.20;;;;;;5071852;28;20162;-72
2022/07/06 11:53:25;;;;;;;1.03;0.93;;;32.80;35.30;;;;;;5071737;28;20174;-73
2022/07/06 11:55:50;;;;;;;1.40;0.90;;;32.30;35.80;;;;;;5070289;28;20877;-73
2022/07/06 11:58:22;;;;;;;1.10;0.90;;;31.70;35.30;;;;;;5071643;28;20194;-72
2022/07/06 12:01:07;;;;;;;4.33;1.07;;;30.10;35.50;;;;;;5071792;28;20185;-72
2022/07/06 12:03:34;;;;;;;2.90;1.00;;;29.30;37.90;;;;;;5071779;28;20895;-72
2022/07/06 12:06:01;;;;;;;2.17;1.50;;;28.60;38.10;;;;;;5071513;28;20435;-72
2022/07/06 12:08:27;;;;;;;1.10;1.00;;;28.00;40.40;;;;;;5071522;28;20530;-72
2022/07/06 12:10:52;;;;;;;1.40;1.00;;;27.70;40.50;;;;;;5071705;28;20434;-72
2022/07/06 12:13:18;;;;;;;1.53;1.10;;;27.30;40.20;;;;;;5071556;28;20158;-72
2022/07/06 12:15:44;;;;;;;2.17;1.47;;;26.80;41.40;;;;;;5071326;28;20522;-72
2022/07/06 12:18:10;;;;;;;1.10;1.00;;;26.60;42.90;;;;;;5071464;28;20255;-72
2022/07/06 12:20:36;;;;;;;2.57;1.20;;;26.50;44.00;;;;;;5071590;28;20177;-72
2022/07/06 12:23:05;;;;;;;2.27;1.10;;;26.40;42.60;;;;;;5071487;28;20413;-72
2022/07/06 12:25:35;;;;;;;1.30;1.10;;;26.50;44.10;;;;;;5071215;28;20224;-71
2022/07/06 12:28:02;;;;;;;1.10;0.93;;;26.40;42.00;;;;;;5071228;28;20509;-72
2022/07/06 12:30:28;;;;;;;2.70;0.83;;;26.30;42.90;;;;;;5071442;28;20411;-73
2022/07/06 12:33:18;;;;;;;1.77;1.10;;;26.30;43.90;;;;;;5071474;28;20400;-73
2022/07/06 12:35:44;;;;;;;3.30;1.67;;;26.50;42.60;;;;;;5074057;28;20397;-73
2022/07/06 12:38:09;;;;;;;0.90;0.70;;;26.80;43.60;;;;;;5074722;28;20470;-74
2022/07/06 12:40:38;;;;;;;1.00;0.80;;;27.20;41.10;;;;;;5075444;28;20174;-73
2022/07/06 12:43:05;;;;;;;2.80;1.43;;;27.20;42.10;;;;;;5074054;28;20677;-73
2022/07/06 12:45:31;;;;;;;2.10;0.90;;;27.60;43.90;;;;;;5073421;28;20466;-73
2022/07/06 12:48:01;;;;;;;1.73;1.17;;;28.00;42.20;;;;;;5075052;28;20444;-74